Time;durP1;ratioP1;P1;durP2;ratioP2;P2;SDS_P1;SDS_P2;PMS_P1;PMS_P2;Temp;Humidity;BMP_temperature;BMP_pressure;BME280_temperature;BME280_humidity;BME280_pressure;Samples;Min_cycle;Max_cycle;Signal;HPM_P1;HPM_P2
2024/01/28 00:01:32;;;;;;;;;;;;;;;5.00;100.00;101238.97;4899360;29;19967;-80
2024/01/28 00:03:57;;;;;;;;;;;;;;;4.99;100.00;101240.69;4899776;29;19919;-86
2024/01/28 00:06:22;;;;;;;;;;;;;;;5.00;100.00;101241.59;4900037;29;20031;-84
2024/01/28 00:08:47;;;;;;;;;;;;;;;4.99;100.00;101243.31;4916214;29;19927;-83
2024/01/28 00:11:13;;;;;;;;;;;;;;;5.01;100.00;101243.31;4896673;29;19927;-83
2024/01/28 00:13:38;;;;;;;;;;;;;;;4.95;100.00;101238.06;4898663;29;20401;-83
2024/01/28 00:16:03;;;;;;;;;;;;;;;5.07;100.00;101238.09;4916652;29;19919;-87
2024/01/28 00:18:29;;;;;;;;;;;;;;;4.95;100.00;101243.31;4916570;29;19934;-84
2024/01/28 00:20:55;;;;;;;;;;;;;;;4.97;100.00;101239.81;4915161;29;19923;-84
2024/01/28 00:23:20;;;;;;;;;;;;;;;4.98;100.00;101241.59;4916107;29;19974;-86
2024/01/28 00:25:45;;;;;;;;;;;;;;;5.01;100.00;101238.97;4915178;29;19918;-84
2024/01/28 00:28:11;;;;;;;;;;;;;;;4.99;100.00;101238.06;4916434;29;20267;-81
2024/01/28 00:30:36;;;;;;;;;;;;;;;4.96;100.00;101234.56;4915499;29;19931;-86
2024/01/28 00:33:02;;;;;;;;;;;;;;;4.97;100.00;101231.94;4916958;29;19920;-85
2024/01/28 00:35:28;;;;;;;;;;;;;;;4.97;100.00;101228.44;4919956;29;19923;-81
2024/01/28 00:37:55;;;;;;;;;;;;;;;4.98;100.00;101222.28;4915392;29;20291;-87
2024/01/28 00:40:21;;;;;;;;;;;;;;;4.96;100.00;101221.41;4915961;29;19930;-86
2024/01/28 00:42:47;;;;;;;;;;;;;;;4.99;100.00;101224.94;4895608;29;20010;-82
2024/01/28 00:45:12;;;;;;;;;;;;;;;4.96;100.00;101217.03;4897437;29;20027;-87
2024/01/28 00:47:39;;;;;;;;;;;;;;;5.00;100.00;101220.56;4897022;29;19930;-82
2024/01/28 08:19:14;;;;;;;;;;;;;;;6.07;100.00;101098.75;4918473;29;19929;-90
2024/01/28 08:21:39;;;;;;;;;;;;;;;6.14;100.00;101099.59;4900427;29;19923;-84
2024/01/28 08:24:04;;;;;;;;;;;;;;;6.13;100.00;101100.50;4917934;29;20297;-88
2024/01/28 08:26:29;;;;;;;;;;;;;;;6.14;100.00;101102.22;4901127;29;19929;-85
2024/01/28 08:28:55;;;;;;;;;;;;;;;6.15;100.00;101109.25;4917570;29;20310;-82
2024/01/28 08:31:20;;;;;;;;;;;;;;;6.16;100.00;101103.97;4916946;29;19919;-87
2024/01/28 08:33:45;;;;;;;;;;;;;;;6.18;100.00;101096.06;4917967;29;19933;-83
2024/01/28 08:36:10;;;;;;;;;;;;;;;6.24;100.00;101098.69;4900875;29;20342;-85
2024/01/28 08:38:36;;;;;;;;;;;;;;;6.21;100.00;101101.34;4917601;29;19923;-87
2024/01/28 08:41:01;;;;;;;;;;;;;;;6.20;100.00;101094.31;4917356;29;19926;-86
2024/01/28 08:43:27;;;;;;;;;;;;;;;6.22;100.00;101097.78;4899797;29;19962;-82
2024/01/28 08:45:52;;;;;;;;;;;;;;;6.23;100.00;101101.31;4915325;29;20355;-83
2024/01/28 08:48:17;;;;;;;;;;;;;;;6.26;100.00;101106.59;4916002;29;20311;-79
2024/01/28 08:50:42;;;;;;;;;;;;;;;6.24;100.00;101103.94;4916334;29;19923;-83
2024/01/28 08:53:08;;;;;;;;;;;;;;;6.25;100.00;101110.94;4899176;29;19954;-85
2024/01/28 08:55:33;;;;;;;;;;;;;;;6.28;100.00;101104.81;4916205;29;19923;-84
2024/01/28 08:57:58;;;;;;;;;;;;;;;6.28;100.00;101103.03;4916483;29;19919;-89
2024/01/28 09:00:24;;;;;;;;;;;;;;;6.28;100.00;101103.03;4915211;29;19978;-81
2024/01/28 09:02:49;;;;;;;;;;;;;;;6.28;100.00;101103.03;4899577;29;19919;-87
2024/01/28 09:05:14;;;;;;;;;;;;;;;6.30;100.00;101103.94;4918176;29;19982;-80
2024/01/28 09:07:41;;;;;;;;;;;;;;;6.30;100.00;101101.31;4920080;29;20378;-88
2024/01/28 09:10:07;;;;;;;;;;;;;;;6.32;100.00;101107.44;4902089;29;19923;-85
2024/01/28 09:12:33;;;;;;;;;;;;;;;6.35;100.00;101098.63;4918567;29;20018;-86
2024/01/28 09:14:58;;;;;;;;;;;;;;;6.34;100.00;101100.38;4917135;29;19923;-82
2024/01/28 09:17:23;;;;;;;;;;;;;;;6.36;100.00;101100.38;4899859;29;19979;-85
2024/01/28 09:19:48;;;;;;;;;;;;;;;6.37;100.00;101102.16;4900373;29;19919;-92
2024/01/28 09:22:14;;;;;;;;;;;;;;;6.40;100.00;101106.50;4901457;29;19942;-79
2024/01/28 09:24:39;;;;;;;;;;;;;;;6.41;100.00;101105.63;4898339;29;19923;-86
2024/01/28 09:27:04;;;;;;;;;;;;;;;6.41;100.00;101110.91;4898690;29;20086;-83
2024/01/28 09:29:30;;;;;;;;;;;;;;;6.43;100.00;101110.03;4900644;29;19920;-81
2024/01/28 09:31:59;;;;;;;;;;;;;;;6.43;100.00;101107.38;4901352;29;19968;-82
2024/01/28 09:34:24;;;;;;;;;;;;;;;6.45;100.00;101102.97;4901912;29;19927;-81
2024/01/28 09:36:49;;;;;;;;;;;;;;;6.44;100.00;101089.81;4902280;29;19923;-89
2024/01/28 09:39:15;;;;;;;;;;;;;;;6.44;100.00;101095.09;4901268;29;19931;-81
2024/01/28 09:41:55;;;;;;;;;;;;;;;6.46;100.00;101096.84;4900531;29;19931;-86
2024/01/28 09:44:20;;;;;;;;;;;;;;;6.49;100.00;101095.94;4899689;29;19919;-83
2024/01/28 09:46:45;;;;;;;;;;;;;;;6.48;100.00;101091.56;4899246;29;20022;-78
2024/01/28 09:49:11;;;;;;;;;;;;;;;6.48;100.00;101094.19;4901444;29;19919;-77
2024/01/28 09:51:40;;;;;;;;;;;;;;;6.51;100.00;101094.16;4898272;29;19919;-79
2024/01/28 09:54:07;;;;;;;;;;;;;;;6.49;100.00;101094.19;4899769;29;19920;-85
2024/01/28 09:56:32;;;;;;;;;;;;;;;6.51;100.00;101094.16;4899098;29;19919;-80
2024/01/28 09:58:58;;;;;;;;;;;;;;;6.54;100.00;101096.78;4900979;29;19919;-79
2024/01/28 10:01:24;;;;;;;;;;;;;;;6.55;100.00;101101.16;4901934;29;19974;-83
2024/01/28 10:03:50;;;;;;;;;;;;;;;6.57;100.00;101088.84;4903819;29;20276;-79
2024/01/28 10:06:15;;;;;;;;;;;;;;;6.59;100.00;101091.47;4900988;29;19926;-83
2024/01/28 10:08:41;;;;;;;;;;;;;;;6.60;100.00;101094.09;4899985;29;19986;-79
2024/01/28 10:11:06;;;;;;;;;;;;;;;6.60;100.00;101099.38;4900455;29;20405;-94
2024/01/28 10:13:32;;;;;;;;;;;;;;;6.60;100.00;101091.47;4900352;29;20334;-90
2024/01/28 13:44:29;;;;;;;;;;;;;;;5.10;100.00;100849.25;5361465;23;19942;-84
2024/01/28 13:46:57;;;;;;;;;;;;;;;5.06;100.00;100848.38;4927687;29;19927;-82
2024/01/28 13:49:23;;;;;;;;;;;;;;;5.04;100.00;100842.28;4911600;29;19922;-80
2024/01/28 13:51:48;;;;;;;;;;;;;;;4.99;100.00;100836.13;4928843;29;19925;-83
2024/01/28 13:54:13;;;;;;;;;;;;;;;5.05;100.00;100830.00;4928345;29;20413;-79
2024/01/28 13:56:39;;;;;;;;;;;;;;;4.92;100.00;100826.53;4928263;29;19919;-83
2024/01/28 13:59:04;;;;;;;;;;;;;;;4.95;100.00;100825.69;4927884;29;19926;-79
2024/01/28 14:01:29;;;;;;;;;;;;;;;4.98;100.00;100823.91;4928478;29;20093;-82
2024/01/28 14:03:54;;;;;;;;;;;;;;;4.95;100.00;100823.91;4928236;29;19922;-81
2024/01/28 14:06:20;;;;;;;;;;;;;;;4.89;100.00;100823.94;4918674;29;19922;-80
2024/01/28 14:08:45;;;;;;;;;;;;;;;4.87;100.00;100823.94;4927651;29;20444;-79
2024/01/28 14:11:12;;;;;;;;;;;;;;;4.87;100.00;100829.19;4927432;29;19926;-82
2024/01/28 14:13:37;;;;;;;;;;;;;;;4.80;100.00;100818.69;4925987;29;20035;-81
2024/01/28 14:16:03;;;;;;;;;;;;;;;4.84;100.00;100820.44;4927315;29;20009;-82
2024/01/28 14:18:28;;;;;;;;;;;;;;;4.77;100.00;100816.06;4927549;29;19923;-83
2024/01/28 14:20:53;;;;;;;;;;;;;;;4.79;100.00;100820.47;4927151;29;20373;-84
2024/01/28 14:23:19;;;;;;;;;;;;;;;4.72;100.00;100816.09;4927612;29;19989;-84
2024/01/28 14:25:44;;;;;;;;;;;;;;;4.71;100.00;100809.97;4926907;29;19926;-85
2024/01/28 14:28:09;;;;;;;;;;;;;;;4.70;100.00;100810.84;4925899;29;19919;-83
2024/01/28 14:30:34;;;;;;;;;;;;;;;4.66;100.00;100808.22;4927070;29;19918;-84
2024/01/28 14:33:00;;;;;;;;;;;;;;;4.66;100.00;100803.88;4927235;29;19919;-81
2024/01/28 14:35:25;;;;;;;;;;;;;;;4.63;100.00;100803.00;4926860;29;19952;-82
2024/01/28 14:37:50;;;;;;;;;;;;;;;4.65;100.00;100799.47;4926578;29;20407;-83
2024/01/28 14:40:18;;;;;;;;;;;;;;;4.68;100.00;100793.34;4927077;29;20289;-84
2024/01/28 14:42:43;;;;;;;;;;;;;;;4.70;100.00;100796.84;4924988;29;19923;-81
2024/01/28 14:45:09;;;;;;;;;;;;;;;4.71;100.00;100801.22;4926404;29;19934;-82
2024/01/28 14:47:34;;;;;;;;;;;;;;;4.71;100.00;100798.59;4926605;29;19986;-81
2024/01/28 14:50:00;;;;;;;;;;;;;;;4.67;100.00;100796.84;4926424;29;19923;-81
2024/01/28 14:52:26;;;;;;;;;;;;;;;4.68;100.00;100798.59;4926664;29;19919;-82
2024/01/28 14:54:51;;;;;;;;;;;;;;;4.61;100.00;100799.47;4926709;29;19942;-81
2024/01/28 14:57:16;;;;;;;;;;;;;;;4.63;100.00;100795.13;4926420;29;19993;-90
2024/01/28 14:59:41;;;;;;;;;;;;;;;4.59;100.00;100793.38;4907617;29;19934;-82
2024/01/28 15:02:07;;;;;;;;;;;;;;;4.62;100.00;100793.38;4926784;29;20013;-82
2024/01/28 15:04:32;;;;;;;;;;;;;;;4.59;100.00;100799.47;4909643;29;19918;-81
2024/01/28 15:06:57;;;;;;;;;;;;;;;4.65;100.00;100793.38;4926176;29;20001;-80
2024/01/28 15:09:23;;;;;;;;;;;;;;;4.60;100.00;100789.88;4926336;29;19930;-79
2024/01/28 15:11:48;;;;;;;;;;;;;;;4.58;100.00;100791.63;4926574;29;19919;-81
2024/01/28 15:14:13;;;;;;;;;;;;;;;4.58;100.00;100789.88;4925564;29;20441;-79
2024/01/28 15:16:40;;;;;;;;;;;;;;;4.58;100.00;100789.00;4926241;29;19919;-80
2024/01/28 15:19:05;;;;;;;;;;;;;;;4.57;100.00;100789.88;4926185;29;20320;-81
2024/01/28 15:21:30;;;;;;;;;;;;;;;4.55;100.00;100793.38;4909328;29;19926;-79
2024/01/28 15:23:56;;;;;;;;;;;;;;;4.60;100.00;100792.50;4925984;29;20026;-80
2024/01/28 15:26:21;;;;;;;;;;;;;;;4.57;100.00;100787.25;4925985;29;19975;-79
2024/01/28 15:28:46;;;;;;;;;;;;;;;4.55;100.00;100782.00;4924703;29;19966;-78
2024/01/28 15:31:12;;;;;;;;;;;;;;;4.58;100.00;100781.13;4926424;29;19923;-81
2024/01/28 15:33:37;;;;;;;;;;;;;;;4.62;100.00;100780.25;4926050;29;19920;-84
2024/01/28 15:36:03;;;;;;;;;;;;;;;4.54;100.00;100783.75;4925491;29;19923;-81
2024/01/28 15:38:28;;;;;;;;;;;;;;;4.53;100.00;100787.25;4908457;29;19962;-84
2024/01/28 15:40:53;;;;;;;;;;;;;;;4.53;100.00;100781.13;4926159;29;19939;-82
2024/01/28 15:43:20;;;;;;;;;;;;;;;4.52;100.00;100788.13;4924479;29;19920;-81
2024/01/28 15:45:48;;;;;;;;;;;;;;;4.53;100.00;100783.75;4925325;29;19923;-82
2024/01/28 15:48:14;;;;;;;;;;;;;;;4.51;100.00;100785.50;4924932;29;20026;-82
2024/01/28 15:50:39;;;;;;;;;;;;;;;4.49;100.00;100782.88;4908238;29;20010;-81
2024/01/28 15:53:05;;;;;;;;;;;;;;;4.48;100.00;100780.25;4925164;29;19966;-81
2024/01/28 15:55:30;;;;;;;;;;;;;;;4.48;100.00;100781.16;4925098;29;19922;-81
2024/01/28 15:57:55;;;;;;;;;;;;;;;4.50;100.00;100781.13;4924351;29;19918;-81
2024/01/28 16:00:20;;;;;;;;;;;;;;;4.51;100.00;100781.13;4925514;29;20390;-81
2024/01/28 16:02:46;;;;;;;;;;;;;;;4.49;100.00;100780.25;4907677;29;19971;-82
2024/01/28 16:05:11;;;;;;;;;;;;;;;4.50;100.00;100773.25;4916025;29;19922;-82
2024/01/28 16:07:39;;;;;;;;;;;;;;;4.43;100.00;100772.41;4924584;29;19927;-82
2024/01/28 16:10:05;;;;;;;;;;;;;;;4.45;100.00;100781.16;4923913;29;19920;-79
2024/01/28 16:12:30;;;;;;;;;;;;;;;4.46;100.00;100776.78;4925312;29;19926;-83
2024/01/28 16:14:56;;;;;;;;;;;;;;;4.46;100.00;100782.03;4924252;29;20310;-81
2024/01/28 16:17:23;;;;;;;;;;;;;;;4.51;100.00;100775.88;4925333;29;20374;-83
2024/01/28 16:19:50;;;;;;;;;;;;;;;4.51;100.00;100783.75;4924898;29;19919;-82
2024/01/28 16:22:15;;;;;;;;;;;;;;;4.51;100.00;100786.38;4924026;29;20092;-82
2024/01/28 16:24:40;;;;;;;;;;;;;;;4.51;100.00;100785.50;4924880;29;20030;-82
2024/01/28 16:27:06;;;;;;;;;;;;;;;4.51;100.00;100780.25;4925145;29;19923;-81
2024/01/28 16:29:32;;;;;;;;;;;;;;;4.46;100.00;100785.50;4906250;29;19919;-80
2024/01/28 16:31:57;;;;;;;;;;;;;;;4.48;100.00;100786.41;4924651;29;20014;-80
2024/01/28 16:34:23;;;;;;;;;;;;;;;4.45;100.00;100783.78;4924899;29;20006;-82
2024/01/28 16:36:48;;;;;;;;;;;;;;;4.48;100.00;100781.16;4924817;29;19962;-79
2024/01/28 16:39:13;;;;;;;;;;;;;;;4.45;100.00;100791.66;4925947;29;19955;-80
2024/01/28 16:41:38;;;;;;;;;;;;;;;4.43;100.00;100779.41;4925641;29;19923;-81
2024/01/28 16:44:04;;;;;;;;;;;;;;;4.43;100.00;100782.03;4924331;29;19918;-83
2024/01/28 16:46:30;;;;;;;;;;;;;;;4.39;100.00;100788.16;4925209;29;19930;-82
2024/01/28 16:48:55;;;;;;;;;;;;;;;4.43;100.00;100787.28;4925674;29;20405;-82
2024/01/28 16:51:21;;;;;;;;;;;;;;;4.46;100.00;100785.50;4925598;29;19965;-79
2024/01/28 16:53:46;;;;;;;;;;;;;;;4.42;100.00;100790.78;4925083;29;19966;-81
2024/01/28 16:56:12;;;;;;;;;;;;;;;4.43;100.00;100792.53;4925656;29;20034;-81
2024/01/28 16:58:37;;;;;;;;;;;;;;;4.40;100.00;100788.16;4923903;29;19923;-81
2024/01/28 17:01:04;;;;;;;;;;;;;;;4.41;100.00;100789.91;4925358;29;19930;-82
2024/01/28 17:03:30;;;;;;;;;;;;;;;4.45;100.00;100791.66;4925774;29;19928;-81
2024/01/28 17:05:55;;;;;;;;;;;;;;;4.45;100.00;100780.28;4925080;29;19919;-83
2024/01/28 17:08:20;;;;;;;;;;;;;;;4.44;100.00;100778.53;4925022;29;19923;-82
2024/01/28 17:10:46;;;;;;;;;;;;;;;4.48;100.00;100781.16;4925357;29;19974;-83
2024/01/28 17:13:11;;;;;;;;;;;;;;;4.49;100.00;100776.78;4924144;29;20282;-81
2024/01/28 17:15:36;;;;;;;;;;;;;;;4.43;100.00;100777.66;4925162;29;19955;-83
2024/01/28 17:18:02;;;;;;;;;;;;;;;4.44;100.00;100783.78;4925487;29;20381;-81
2024/01/28 17:20:27;;;;;;;;;;;;;;;4.39;100.00;100791.66;4925121;29;19920;-80
2024/01/28 17:22:52;;;;;;;;;;;;;;;4.40;100.00;100788.16;4924888;29;19937;-80
2024/01/28 17:25:18;;;;;;;;;;;;;;;4.42;100.00;100794.28;4925331;29;19926;-81
2024/01/28 17:27:43;;;;;;;;;;;;;;;4.40;100.00;100803.03;4923962;29;19923;-83
2024/01/28 17:30:09;;;;;;;;;;;;;;;4.47;100.00;100800.41;4924774;29;20291;-80
2024/01/28 17:32:34;;;;;;;;;;;;;;;4.40;100.00;100797.78;4924808;29;19930;-81
2024/01/28 17:34:59;;;;;;;;;;;;;;;4.42;100.00;100796.91;4925246;29;19926;-82
2024/01/28 17:37:25;;;;;;;;;;;;;;;4.42;100.00;100786.41;4925123;29;19929;-80
2024/01/28 17:39:50;;;;;;;;;;;;;;;4.41;100.00;100800.41;4924840;29;19919;-80
2024/01/28 17:42:16;;;;;;;;;;;;;;;4.46;100.00;100798.63;4924926;29;19923;-81
2024/01/28 17:44:41;;;;;;;;;;;;;;;4.46;100.00;100801.25;4923932;29;19918;-82
2024/01/28 17:47:08;;;;;;;;;;;;;;;4.45;100.00;100801.25;4907587;29;19919;-81
2024/01/28 17:49:33;;;;;;;;;;;;;;;4.44;100.00;100799.53;4924925;29;19923;-83
2024/01/28 17:51:59;;;;;;;;;;;;;;;4.43;100.00;100797.78;4924594;29;20338;-82
2024/01/28 17:54:24;;;;;;;;;;;;;;;4.45;100.00;100791.66;4925230;29;19958;-81
2024/01/28 17:56:49;;;;;;;;;;;;;;;4.46;100.00;100792.53;4915322;29;19919;-82
2024/01/28 17:59:14;;;;;;;;;;;;;;;4.48;100.00;100793.38;4923927;29;19919;-82
2024/01/28 18:01:40;;;;;;;;;;;;;;;4.41;100.00;100789.91;4924764;29;19919;-83
2024/01/28 18:04:05;;;;;;;;;;;;;;;4.42;100.00;100791.66;4924878;29;19965;-82
2024/01/28 18:06:30;;;;;;;;;;;;;;;4.43;100.00;100797.78;4924423;29;19923;-82
2024/01/28 18:08:56;;;;;;;;;;;;;;;4.46;100.00;100803.03;4907613;29;19925;-81
2024/01/28 18:11:21;;;;;;;;;;;;;;;4.45;100.00;100812.66;4924824;29;19975;-82
2024/01/28 18:13:46;;;;;;;;;;;;;;;4.37;100.00;100809.13;4923321;29;20287;-83
2024/01/28 18:16:13;;;;;;;;;;;;;;;4.40;100.00;100803.91;4915441;29;19957;-83
2024/01/28 18:18:42;;;;;;;;;;;;;;;4.39;100.00;100804.78;4927004;29;20006;-81
2024/01/28 18:21:07;;;;;;;;;;;;;;;4.43;100.00;100816.16;4927804;29;19923;-83
2024/01/28 18:23:33;;;;;;;;;;;;;;;4.42;100.00;100817.91;4928323;29;19925;-82
2024/01/28 18:25:58;;;;;;;;;;;;;;;4.45;100.00;100815.28;4910775;29;19925;-83
2024/01/28 18:28:23;;;;;;;;;;;;;;;4.45;100.00;100824.88;4926523;29;19919;-82
2024/01/28 18:30:50;;;;;;;;;;;;;;;4.42;100.00;100827.50;4927777;29;20304;-81
2024/01/28 18:33:15;;;;;;;;;;;;;;;4.42;100.00;100832.75;4910992;29;20010;-83
2024/01/28 18:35:41;;;;;;;;;;;;;;;4.43;100.00;100835.38;4927838;29;19988;-80
2024/01/28 18:38:06;;;;;;;;;;;;;;;4.47;100.00;100826.66;4927365;29;19952;-82
2024/01/28 18:40:31;;;;;;;;;;;;;;;4.45;100.00;100831.03;4927718;29;19928;-80
2024/01/28 18:42:56;;;;;;;;;;;;;;;4.44;100.00;100837.16;4926203;29;19922;-84
2024/01/28 18:45:22;;;;;;;;;;;;;;;4.45;100.00;100828.41;4927736;29;20340;-84
2024/01/28 18:47:47;;;;;;;;;;;;;;;4.45;100.00;100838.91;4928108;29;19919;-78
2024/01/28 18:50:12;;;;;;;;;;;;;;;4.40;100.00;100835.38;4917953;29;20019;-81
2024/01/28 18:52:38;;;;;;;;;;;;;;;4.47;100.00;100831.91;4910750;29;19946;-81
2024/01/28 18:55:03;;;;;;;;;;;;;;;4.44;100.00;100831.91;4927583;29;20286;-82
2024/01/28 18:57:28;;;;;;;;;;;;;;;4.46;100.00;100835.38;4926505;29;19935;-80
2024/01/28 18:59:54;;;;;;;;;;;;;;;4.47;100.00;100838.91;4926102;29;19970;-81
2024/01/28 19:02:19;;;;;;;;;;;;;;;4.42;100.00;100833.66;4927216;29;19923;-80
2024/01/28 19:04:47;;;;;;;;;;;;;;;4.42;100.00;100823.16;4926562;29;19923;-77
2024/01/28 19:07:13;;;;;;;;;;;;;;;4.43;100.00;100838.00;4924972;29;19954;-80
2024/01/28 19:09:38;;;;;;;;;;;;;;;4.42;100.00;100833.66;4926628;29;20473;-80
2024/01/28 19:12:03;;;;;;;;;;;;;;;4.44;100.00;100838.91;4927345;29;20354;-80
2024/01/28 19:14:29;;;;;;;;;;;;;;;4.45;100.00;100841.53;4923766;29;19934;-80
2024/01/28 19:16:54;;;;;;;;;;;;;;;4.45;100.00;100844.16;4925626;29;19923;-79
2024/01/28 19:19:19;;;;;;;;;;;;;;;4.42;100.00;100838.00;4925529;29;19978;-82
2024/01/28 19:21:44;;;;;;;;;;;;;;;4.42;100.00;100832.75;4926934;29;19919;-80
2024/01/28 19:24:10;;;;;;;;;;;;;;;4.44;100.00;100833.66;4926799;29;19962;-77
2024/01/28 19:26:36;;;;;;;;;;;;;;;4.43;100.00;100835.38;4926610;29;19927;-79
2024/01/28 19:29:02;;;;;;;;;;;;;;;4.42;100.00;100838.00;4925024;29;20271;-81
2024/01/28 19:31:28;;;;;;;;;;;;;;;4.41;100.00;100836.28;4926046;29;20358;-81
2024/01/28 19:33:54;;;;;;;;;;;;;;;4.40;100.00;100845.88;4924835;29;20018;-78
2024/01/28 19:36:20;;;;;;;;;;;;;;;4.42;100.00;100844.16;4925179;29;19986;-83
2024/01/28 19:38:45;;;;;;;;;;;;;;;4.44;100.00;100849.41;4926581;29;20333;-78
2024/01/28 19:41:10;;;;;;;;;;;;;;;4.39;100.00;100854.66;4926850;29;19923;-78
2024/01/28 19:43:35;;;;;;;;;;;;;;;4.42;100.00;100852.03;4924828;29;19919;-78
2024/01/28 19:46:01;;;;;;;;;;;;;;;4.40;100.00;100850.25;4925307;29;19935;-77
2024/01/28 19:48:26;;;;;;;;;;;;;;;4.43;100.00;100850.25;4926408;29;19930;-77
2024/01/28 19:50:53;;;;;;;;;;;;;;;4.38;100.00;100852.88;4925255;29;19938;-85
2024/01/28 19:53:18;;;;;;;;;;;;;;;4.38;100.00;100855.50;4908056;29;20387;-78
2024/01/28 19:55:44;;;;;;;;;;;;;;;4.40;100.00;100851.13;4925483;29;19923;-81
2024/01/28 19:58:11;;;;;;;;;;;;;;;4.45;100.00;100859.91;4908102;29;19925;-78
2024/01/28 20:00:37;;;;;;;;;;;;;;;4.42;100.00;100853.75;4925971;29;19921;-79
2024/01/28 20:03:02;;;;;;;;;;;;;;;4.42;100.00;100844.16;4909478;29;20013;-79
2024/01/28 20:05:27;;;;;;;;;;;;;;;4.43;100.00;100845.88;4926116;29;19922;-79
2024/01/28 20:07:53;;;;;;;;;;;;;;;4.39;100.00;100844.16;4924475;29;20370;-78
2024/01/28 20:10:18;;;;;;;;;;;;;;;4.41;100.00;100842.41;4925885;29;20290;-79
2024/01/28 20:12:43;;;;;;;;;;;;;;;4.46;100.00;100845.03;4925759;29;19937;-79
2024/01/28 20:15:09;;;;;;;;;;;;;;;4.41;100.00;100842.41;4925772;29;19923;-79
2024/01/28 20:17:34;;;;;;;;;;;;;;;4.43;100.00;100834.53;4924819;29;20010;-78
2024/01/28 20:20:00;;;;;;;;;;;;;;;4.40;100.00;100837.16;4925413;29;20017;-79
2024/01/28 20:22:25;;;;;;;;;;;;;;;4.40;100.00;100837.16;4924515;29;19927;-79
2024/01/28 20:24:52;;;;;;;;;;;;;;;4.40;100.00;100826.66;4925417;29;19955;-81
2024/01/28 20:27:17;;;;;;;;;;;;;;;4.38;100.00;100831.91;4925505;29;19923;-80
2024/01/28 20:29:43;;;;;;;;;;;;;;;4.39;100.00;100827.50;4925035;29;19966;-80
2024/01/28 20:32:08;;;;;;;;;;;;;;;4.40;100.00;100832.75;4908414;29;19919;-83
2024/01/28 20:34:33;;;;;;;;;;;;;;;4.43;100.00;100830.13;4926173;29;19919;-78
2024/01/28 20:36:58;;;;;;;;;;;;;;;4.39;100.00;100830.13;4925812;29;19919;-77
2024/01/28 20:39:24;;;;;;;;;;;;;;;4.41;100.00;100826.66;4925358;29;19923;-78
2024/01/28 20:41:49;;;;;;;;;;;;;;;4.38;100.00;100828.41;4925888;29;19926;-78
2024/01/28 20:44:15;;;;;;;;;;;;;;;4.37;100.00;100835.38;4924094;29;19926;-81
2024/01/28 20:46:40;;;;;;;;;;;;;;;4.40;100.00;100830.13;4915959;29;20313;-80
2024/01/28 20:49:06;;;;;;;;;;;;;;;4.40;100.00;100819.63;4925206;29;19923;-80
2024/01/28 20:51:31;;;;;;;;;;;;;;;4.46;100.00;100826.66;4924237;29;19923;-81
2024/01/28 20:53:56;;;;;;;;;;;;;;;4.42;100.00;100817.91;4908146;29;19990;-80
2024/01/28 20:56:24;;;;;;;;;;;;;;;4.39;100.00;100810.03;4924949;29;19926;-80
2024/01/28 20:58:49;;;;;;;;;;;;;;;4.44;100.00;100823.16;4924504;29;19923;-80
2024/01/28 21:01:15;;;;;;;;;;;;;;;4.41;100.00;100820.53;4923561;29;20303;-78
2024/01/28 21:03:40;;;;;;;;;;;;;;;4.43;100.00;100819.63;4925300;29;20370;-81
2024/01/28 21:06:05;;;;;;;;;;;;;;;4.41;100.00;100824.03;4924170;29;19919;-82
2024/01/28 21:08:31;;;;;;;;;;;;;;;4.39;100.00;100817.91;4924306;29;19934;-78
2024/01/28 21:10:56;;;;;;;;;;;;;;;4.38;100.00;100816.16;4924765;29;19919;-80
2024/01/28 21:13:21;;;;;;;;;;;;;;;4.40;100.00;100803.03;4923971;29;20366;-80
2024/01/28 21:15:47;;;;;;;;;;;;;;;4.43;100.00;100803.03;4925123;29;20387;-79
2024/01/28 21:18:12;;;;;;;;;;;;;;;4.43;100.00;100809.13;4924347;29;20384;-81
2024/01/28 21:20:39;;;;;;;;;;;;;;;4.42;100.00;100801.28;4925156;29;19933;-80
2024/01/28 21:23:04;;;;;;;;;;;;;;;4.43;100.00;100803.03;4924083;29;19981;-81
2024/01/28 21:25:29;;;;;;;;;;;;;;;4.40;100.00;100803.91;4925131;29;19959;-78
2024/01/28 21:27:55;;;;;;;;;;;;;;;4.38;100.00;100808.28;4923955;29;19942;-78
2024/01/28 21:30:20;;;;;;;;;;;;;;;4.38;100.00;100803.03;4924232;29;19927;-78
2024/01/28 21:32:45;;;;;;;;;;;;;;;4.37;100.00;100809.13;4907815;29;19919;-79
2024/01/28 21:35:11;;;;;;;;;;;;;;;4.37;100.00;100801.28;4924921;29;20263;-79
2024/01/28 21:37:36;;;;;;;;;;;;;;;4.37;100.00;100798.66;4908212;29;19919;-78
2024/01/28 21:40:03;;;;;;;;;;;;;;;4.41;100.00;100799.53;4924699;29;20267;-79
2024/01/28 21:42:28;;;;;;;;;;;;;;;4.41;100.00;100799.53;4923925;29;19930;-81
2024/01/28 21:44:54;;;;;;;;;;;;;;;4.36;100.00;100795.16;4923587;29;19923;-84
2024/01/28 21:47:19;;;;;;;;;;;;;;;4.41;100.00;100795.16;4923880;29;20019;-82
2024/01/28 21:49:45;;;;;;;;;;;;;;;4.39;100.00;100801.28;4923682;29;19972;-81
2024/01/28 21:52:11;;;;;;;;;;;;;;;4.37;100.00;100803.91;4908109;29;19923;-80
2024/01/28 21:54:36;;;;;;;;;;;;;;;4.42;100.00;100796.03;4928650;29;19923;-79
2024/01/28 21:57:01;;;;;;;;;;;;;;;4.39;100.00;100796.03;4928584;29;19934;-80
2024/01/28 21:59:26;;;;;;;;;;;;;;;4.41;100.00;100800.41;4925988;29;20310;-78
